createdAt,value
2023-02-06T00:03:15.462Z,-61
2023-02-06T00:13:22.189Z,-60
2023-02-06T00:23:28.928Z,-59
2023-02-06T00:33:35.604Z,-60
2023-02-06T00:43:42.360Z,-61
2023-02-06T00:53:51.042Z,-59
2023-02-06T01:03:55.822Z,-61
2023-02-06T01:14:02.491Z,-59
2023-02-06T01:24:09.263Z,-57
2023-02-06T01:34:15.950Z,-59
2023-02-06T01:44:22.718Z,-61
2023-02-06T01:54:30.631Z,-61
2023-02-06T02:04:38.649Z,-60
2023-02-06T02:14:46.575Z,-58
2023-02-06T02:24:53.295Z,-63
2023-02-06T02:35:01.233Z,-60
2023-02-06T02:45:09.239Z,-61
2023-02-06T02:55:15.918Z,-60
2023-02-06T03:05:22.646Z,-60
2023-02-06T03:15:29.747Z,-61
2023-02-06T03:25:37.636Z,-60
2023-02-06T03:35:45.260Z,-57
2023-02-06T03:45:52.077Z,-63
2023-02-06T03:55:58.715Z,-61
2023-02-06T04:06:05.508Z,-58
2023-02-06T04:16:13.431Z,-58
2023-02-06T04:26:20.201Z,-59
2023-02-06T04:36:26.903Z,-53
2023-02-06T04:46:33.662Z,-60
2023-02-06T04:56:40.336Z,-54
2023-02-06T05:06:47.088Z,-61
2023-02-06T05:16:53.791Z,-59
2023-02-06T05:27:01.764Z,-57
2023-02-06T05:37:08.455Z,-56
2023-02-06T05:47:15.211Z,-54
2023-02-06T05:57:21.956Z,-54
2023-02-06T06:07:28.680Z,-63
2023-02-06T06:17:35.363Z,-56
2023-02-06T06:27:42.168Z,-57
2023-02-06T06:37:48.829Z,-52
2023-02-06T06:47:55.560Z,-55
2023-02-06T06:58:02.282Z,-52
2023-02-06T07:08:09.146Z,-46
2023-02-06T07:18:15.736Z,-53
2023-02-06T07:28:22.494Z,-51
2023-02-06T07:38:29.189Z,-48
2023-02-06T07:48:35.983Z,-51
2023-02-06T07:58:43.852Z,-53
2023-02-06T08:08:51.833Z,-57
2023-02-06T08:18:58.539Z,-57
2023-02-06T08:29:06.512Z,-53
2023-02-06T08:39:14.439Z,-47
2023-02-06T08:49:22.427Z,-51
2023-02-06T08:59:30.356Z,-51
2023-02-06T09:09:37.103Z,-49
2023-02-06T09:19:43.809Z,-48
2023-02-06T09:29:50.614Z,-51
2023-02-06T09:39:57.247Z,-47
2023-02-06T09:50:03.989Z,-54
2023-02-06T10:00:10.702Z,-54
2023-02-06T10:10:17.538Z,-51
2023-02-06T10:20:24.140Z,-42
2023-02-06T10:30:30.899Z,-51
2023-02-06T10:40:37.608Z,-47
2023-02-06T10:50:44.348Z,-52
2023-02-06T11:00:51.144Z,-48
2023-02-06T11:10:57.788Z,-42
2023-02-06T11:21:04.511Z,-53
2023-02-06T11:31:11.287Z,-45
2023-02-06T11:41:19.188Z,-45
2023-02-06T11:51:25.933Z,-47
2023-02-06T12:01:32.641Z,-47
2023-02-06T12:11:39.382Z,-48
2023-02-06T12:21:46.104Z,-47
2023-02-06T12:31:52.974Z,-50
2023-02-06T12:41:59.513Z,-58
2023-02-06T12:52:06.269Z,-51
2023-02-06T13:02:13.022Z,-48
2023-02-06T13:12:19.729Z,-51
2023-02-06T13:22:26.422Z,-53
2023-02-06T13:32:33.169Z,-59
2023-02-06T13:42:41.107Z,-46
2023-02-06T13:52:47.864Z,-47
2023-02-06T14:02:54.659Z,-54
2023-02-06T14:13:02.541Z,-53
2023-02-06T14:23:09.246Z,-48
2023-02-06T14:33:17.215Z,-52
2023-02-06T14:43:25.135Z,-50
2023-02-06T14:53:33.129Z,-54
2023-02-06T15:03:41.080Z,-52
2023-02-06T15:13:47.785Z,-57
2023-02-06T15:23:55.807Z,-54
2023-02-06T15:34:02.484Z,-48
2023-02-06T15:44:09.172Z,-49
2023-02-06T15:54:15.948Z,-52
2023-02-06T16:04:22.624Z,-51
2023-02-06T16:14:29.391Z,-55
2023-02-06T16:24:37.307Z,-50
2023-02-06T16:34:44.048Z,-48
2023-02-06T16:44:50.734Z,-52
2023-02-06T16:54:57.507Z,-51
2023-02-06T17:05:04.227Z,-48
2023-02-06T17:15:10.948Z,-54
2023-02-06T17:25:17.648Z,-52
2023-02-06T17:35:24.407Z,-53
2023-02-06T17:45:31.108Z,-52
2023-02-06T17:55:37.862Z,-55
2023-02-06T18:05:44.556Z,-52
2023-02-06T18:15:51.309Z,-53
2023-02-06T18:25:57.994Z,-44
2023-02-06T18:36:04.750Z,-52
2023-02-06T18:46:11.468Z,-51
2023-02-06T18:56:18.203Z,-53
2023-02-06T19:06:24.915Z,-53
2023-02-06T19:16:31.703Z,-54
2023-02-06T19:26:38.343Z,-55
2023-02-06T19:36:45.102Z,-51
2023-02-06T19:46:51.799Z,-46
2023-02-06T19:56:58.557Z,-52
2023-02-06T20:07:05.235Z,-53
2023-02-06T20:17:13.243Z,-54
2023-02-06T20:27:21.161Z,-51
2023-02-06T20:37:27.936Z,-49
2023-02-06T20:47:34.612Z,-51
2023-02-06T20:57:42.602Z,-52
2023-02-06T21:07:49.294Z,-47
2023-02-06T21:17:57.269Z,-52
2023-02-06T21:28:05.297Z,-53
2023-02-06T21:38:13.170Z,-51
2023-02-06T21:48:19.870Z,-52
2023-02-06T21:58:26.632Z,-57
2023-02-06T22:08:33.331Z,-51
2023-02-06T22:18:41.342Z,-48
2023-02-06T22:28:48.026Z,-49
2023-02-06T22:38:54.778Z,-53
2023-02-06T22:49:01.458Z,-52
2023-02-06T22:59:08.211Z,-54
2023-02-06T23:09:15.035Z,-53
2023-02-06T23:19:21.685Z,-49
2023-02-06T23:29:28.364Z,-55
2023-02-06T23:39:35.113Z,-48
2023-02-06T23:49:41.806Z,-47
2023-02-06T23:59:48.556Z,-49
